Time;durP1;ratioP1;P1;durP2;ratioP2;P2;SDS_P1;SDS_P2;PMS_P1;PMS_P2;Temp;Humidity;BMP_temperature;BMP_pressure;BME280_temperature;BME280_humidity;BME280_pressure;Samples;Min_cycle;Max_cycle;Signal;HPM_P1;HPM_P2
2021/09/23 00:02:03;;;;;;;71.72;34.95;;;;;;;15.15;69.98;102339.59;5032536;28;20174;-50
2021/09/23 00:04:35;;;;;;;59.85;30.73;;;;;;;15.15;69.82;102345.75;5046461;28;20127;-51
2021/09/23 00:07:01;;;;;;;65.15;33.35;;;;;;;15.15;69.71;102343.09;5051752;28;20476;-49
2021/09/23 00:09:26;;;;;;;68.47;33.50;;;;;;;15.15;69.81;102327.34;5045377;28;20105;-51
2021/09/23 00:11:52;;;;;;;68.03;34.83;;;;;;;15.12;69.93;102329.06;5024010;28;20032;-49
2021/09/23 00:14:17;;;;;;;72.65;38.08;;;;;;;15.05;70.47;102322.78;5048341;28;20382;-51
2021/09/23 00:16:42;;;;;;;73.53;35.92;;;;;;;15.05;70.25;102316.66;5048150;28;20151;-50
2021/09/23 00:19:08;;;;;;;70.28;35.22;;;;;;;15.03;70.25;102314.88;5027532;28;20044;-49
2021/09/23 00:21:37;;;;;;;72.20;36.58;;;;;;;15.02;70.41;102313.09;5048430;28;20032;-49
2021/09/23 00:24:03;;;;;;;74.60;37.53;;;;;;;15.00;70.75;102313.97;5045787;28;20058;-51
2021/09/23 00:26:28;;;;;;;70.75;34.60;;;;;;;15.00;70.30;102313.97;5048833;28;20383;-53
2021/09/23 00:28:53;;;;;;;65.00;32.17;;;;;;;14.96;70.48;102317.38;5050684;28;20426;-50
2021/09/23 00:31:19;;;;;;;58.72;29.73;;;;;;;14.94;70.33;102309.44;5052171;28;20028;-52
2021/09/23 00:33:44;;;;;;;65.75;33.38;;;;;;;14.89;70.49;102310.22;5039132;28;20032;-51
2021/09/23 00:36:09;;;;;;;73.93;35.53;;;;;;;14.91;70.68;102313.78;5047002;28;20153;-51
2021/09/23 00:38:35;;;;;;;76.97;37.28;;;;;;;14.89;71.01;102311.09;5047994;28;20060;-50
2021/09/23 00:41:00;;;;;;;75.15;36.58;;;;;;;14.93;70.78;102312.06;5049295;28;20396;-49
2021/09/23 00:43:26;;;;;;;78.35;39.15;;;;;;;14.90;71.33;102315.50;5046260;28;20155;-53
2021/09/23 00:45:51;;;;;;;68.35;31.67;;;;;;;14.91;70.69;102322.53;5041698;28;20696;-52
2021/09/23 00:48:16;;;;;;;68.60;33.80;;;;;;;14.87;70.75;102323.34;5048957;28;20055;-49
2021/09/23 00:50:43;;;;;;;67.13;31.48;;;;;;;14.87;70.36;102312.84;5030056;28;20525;-48
2021/09/23 00:53:09;;;;;;;70.40;34.20;;;;;;;14.87;71.03;102306.72;5047729;28;20044;-50
2021/09/23 00:55:35;;;;;;;74.82;36.47;;;;;;;14.87;71.51;102309.34;5044838;28;20106;-54
2021/09/23 00:58:00;;;;;;;71.00;35.38;;;;;;;14.87;71.02;102304.06;5048768;28;20032;-48
2021/09/23 01:00:26;;;;;;;71.35;34.38;;;;;;;14.87;71.29;102298.81;5027290;28;20491;-49
2021/09/23 01:02:51;;;;;;;72.10;35.10;;;;;;;14.98;71.08;102289.41;5051731;28;20067;-51
2021/09/23 01:05:17;;;;;;;70.85;34.00;;;;;;;15.07;70.97;102286.03;5048774;28;20044;-53
2021/09/23 01:07:48;;;;;;;67.50;32.90;;;;;;;15.12;70.70;102281.75;5044098;28;20076;-49
2021/09/23 01:10:16;;;;;;;67.70;30.75;;;;;;;15.15;70.62;102273.91;5048318;28;20039;-53
2021/09/23 01:12:44;;;;;;;61.90;31.23;;;;;;;15.22;70.35;102281.06;5048659;28;20211;-48
2021/09/23 01:15:10;;;;;;;61.63;28.83;;;;;;;15.32;70.33;102280.34;5046946;28;20032;-48
2021/09/23 01:17:36;;;;;;;58.17;29.25;;;;;;;15.29;70.24;102278.56;5036771;28;20540;-51
2021/09/23 01:20:04;;;;;;;61.38;30.90;;;;;;;15.36;70.33;102285.69;5048055;28;20060;-49
2021/09/23 01:22:29;;;;;;;54.10;26.83;;;;;;;15.36;70.21;102267.28;5051125;28;20711;-51
2021/09/23 01:24:55;;;;;;;53.92;28.15;;;;;;;15.37;70.29;102262.88;5048544;28;20051;-51
2021/09/23 01:27:20;;;;;;;53.08;28.65;;;;;;;15.40;70.30;102269.09;5047087;28;20810;-47
2021/09/23 01:29:45;;;;;;;59.72;30.25;;;;;;;15.37;70.55;102269.03;5041456;28;20416;-50
2021/09/23 01:32:11;;;;;;;55.60;28.70;;;;;;;15.48;70.60;102268.34;5051171;28;20546;-50
2021/09/23 01:34:39;;;;;;;59.10;29.33;;;;;;;15.54;70.71;102271.97;5029269;28;20032;-52
2021/09/23 01:37:05;;;;;;;50.22;26.55;;;;;;;15.68;70.76;102273.06;5047249;28;20765;-52
2021/09/23 01:39:30;;;;;;;49.90;27.00;;;;;;;15.77;70.45;102265.31;5048756;28;20056;-51
2021/09/23 01:41:56;;;;;;;48.55;25.92;;;;;;;15.97;69.98;102255.06;5022324;28;20565;-48
2021/09/23 01:44:22;;;;;;;52.47;27.42;;;;;;;16.08;69.86;102249.94;5046527;28;20686;-51
2021/09/23 01:46:47;;;;;;;50.85;26.67;;;;;;;16.15;69.58;102249.16;5048519;28;20032;-48
2021/09/23 01:49:13;;;;;;;52.80;27.80;;;;;;;16.19;69.55;102248.31;5026833;28;20531;-51
2021/09/23 01:51:38;;;;;;;49.70;26.42;;;;;;;16.28;69.31;102240.53;5040124;28;20071;-48
2021/09/23 01:54:04;;;;;;;48.47;26.42;;;;;;;16.32;69.28;102229.19;5044011;28;20048;-51
2021/09/23 01:56:29;;;;;;;49.00;26.80;;;;;;;16.31;69.35;102222.16;5045804;28;20048;-49
2021/09/23 01:58:54;;;;;;;51.58;27.42;;;;;;;16.28;68.88;102221.25;5042001;28;20591;-51
2021/09/23 02:01:21;;;;;;;48.92;26.20;;;;;;;16.30;69.43;102214.22;5049997;28;20134;-51
2021/09/23 02:03:47;;;;;;;53.38;28.38;;;;;;;16.18;70.25;102215.84;5041271;28;20052;-51
2021/09/23 02:06:12;;;;;;;49.75;27.40;;;;;;;16.21;70.23;102205.38;5044715;28;20694;-50
2021/09/23 02:08:38;;;;;;;49.03;26.75;;;;;;;16.15;70.26;102202.69;5048649;28;20043;-50
2021/09/23 02:11:05;;;;;;;54.72;28.08;;;;;;;16.16;70.34;102199.16;5045332;28;20052;-51
2021/09/23 02:13:30;;;;;;;54.25;28.40;;;;;;;16.10;70.84;102187.72;5043198;28;20518;-53
2021/09/23 02:15:55;;;;;;;51.33;27.73;;;;;;;16.09;70.95;102185.94;5027776;28;22131;-52
2021/09/23 02:18:21;;;;;;;54.25;28.17;;;;;;;16.01;71.54;102177.94;5048260;28;20160;-53
2021/09/23 02:20:46;;;;;;;51.00;27.60;;;;;;;15.98;71.61;102175.25;5044117;28;20048;-51
2021/09/23 02:23:11;;;;;;;52.03;27.40;;;;;;;15.96;71.68;102165.63;5045432;28;20817;-49
2021/09/23 02:25:37;;;;;;;53.33;29.02;;;;;;;15.91;72.14;102162.94;5046140;28;20577;-50
2021/09/23 02:28:02;;;;;;;62.63;29.92;;;;;;;15.93;72.68;102161.19;5041365;28;20139;-48
2021/09/23 02:30:29;;;;;;;56.40;29.75;;;;;;;15.88;72.92;102156.75;5042508;28;20817;-50
2021/09/23 02:32:55;;;;;;;54.08;28.48;;;;;;;15.92;72.85;102153.31;5045622;28;20128;-50
2021/09/23 02:35:20;;;;;;;66.90;32.08;;;;;;;15.88;73.70;102146.22;5028642;28;20039;-49
2021/09/23 02:37:45;;;;;;;62.00;31.35;;;;;;;15.88;73.88;102141.84;5038738;28;20075;-51
2021/09/23 02:40:11;;;;;;;57.30;29.38;;;;;;;15.92;73.56;102135.75;5046004;28;20127;-52
2021/09/23 02:42:37;;;;;;;69.22;32.33;;;;;;;15.84;74.44;102140.06;5043348;28;20036;-51
2021/09/23 02:45:03;;;;;;;61.53;31.13;;;;;;;15.87;73.87;102128.66;5032905;28;20135;-49
2021/09/23 02:47:29;;;;;;;68.32;30.85;;;;;;;15.88;74.29;102122.56;5040912;28;20106;-51
2021/09/23 02:49:55;;;;;;;74.22;33.05;;;;;;;15.88;74.23;102117.28;5043358;28;20579;-50
2021/09/23 02:52:20;;;;;;;75.65;33.42;;;;;;;15.91;74.03;102128.75;5048174;28;20460;-49
2021/09/23 02:54:45;;;;;;;75.25;33.70;;;;;;;15.87;74.48;102129.56;5047918;28;20578;-48
2021/09/23 02:57:11;;;;;;;75.50;34.47;;;;;;;15.86;74.67;102140.94;5044743;28;20134;-50
2021/09/23 02:59:37;;;;;;;66.97;30.92;;;;;;;15.86;74.40;102143.56;5042481;28;20086;-50
2021/09/23 03:02:03;;;;;;;59.33;28.98;;;;;;;15.85;74.44;102133.94;5044221;28;20059;-50
2021/09/23 03:04:28;;;;;;;72.05;31.23;;;;;;;15.84;74.55;102132.16;5042957;28;20078;-49
2021/09/23 03:06:53;;;;;;;73.80;32.67;;;;;;;15.83;74.21;102120.75;5046479;28;20041;-51
2021/09/23 03:09:19;;;;;;;73.55;32.72;;;;;;;15.88;74.42;102130.44;5043226;28;20044;-49
2021/09/23 03:11:44;;;;;;;80.43;33.80;;;;;;;15.83;74.85;102130.41;5043188;28;20059;-49
2021/09/23 03:14:10;;;;;;;71.20;30.05;;;;;;;15.83;75.04;102123.38;5042612;28;20055;-52
2021/09/23 03:16:35;;;;;;;74.72;32.25;;;;;;;15.89;74.73;102126.94;5041528;28;20201;-50
2021/09/23 03:19:00;;;;;;;102.20;39.60;;;;;;;15.94;74.96;102112.09;5043965;28;20146;-50
2021/09/23 03:21:26;;;;;;;78.15;35.00;;;;;;;15.97;74.96;102107.78;5048214;28;20143;-50
2021/09/23 03:23:51;;;;;;;91.53;36.30;;;;;;;16.00;75.17;102107.78;5038247;28;20270;-52
2021/09/23 03:26:17;;;;;;;83.15;35.05;;;;;;;15.99;75.23;102111.28;5043111;28;20093;-50
2021/09/23 03:28:42;;;;;;;83.07;35.00;;;;;;;15.99;75.21;102103.38;5048511;28;20128;-53
2021/09/23 03:31:07;;;;;;;90.53;36.05;;;;;;;16.01;75.42;102099.03;5043235;28;20046;-51
2021/09/23 03:33:34;;;;;;;94.18;37.25;;;;;;;16.10;75.39;102096.47;5042879;28;20048;-52
2021/09/23 03:36:00;;;;;;;105.40;39.38;;;;;;;16.09;75.54;102092.13;5039588;28;20046;-52
2021/09/23 03:38:25;;;;;;;111.35;41.63;;;;;;;16.05;76.34;102092.03;5048776;28;20048;-51
2021/09/23 03:40:51;;;;;;;99.75;40.38;;;;;;;16.06;75.83;102089.44;5047375;28;20151;-51
2021/09/23 03:43:19;;;;;;;123.70;43.35;;;;;;;16.07;76.05;102093.84;5049223;28;20040;-49
2021/09/23 03:45:46;;;;;;;114.68;41.00;;;;;;;16.08;76.03;102090.34;5041255;28;20043;-50
2021/09/23 03:48:11;;;;;;;112.25;39.45;;;;;;;16.12;75.93;102102.66;5032409;28;20522;-51
2021/09/23 03:50:37;;;;;;;105.05;36.65;;;;;;;16.10;76.01;102104.38;5045930;28;20060;-49
2021/09/23 03:53:03;;;;;;;118.95;42.50;;;;;;;16.11;76.16;102106.16;5049844;28;20049;-49
2021/09/23 03:55:28;;;;;;;115.68;41.05;;;;;;;16.16;75.83;102109.69;5046459;28;20580;-49
2021/09/23 03:57:53;;;;;;;108.43;38.60;;;;;;;16.21;75.91;102118.56;5043143;28;20036;-52
2021/09/23 04:00:20;;;;;;;106.25;37.55;;;;;;;16.27;75.83;102109.84;5028479;28;20070;-49
2021/09/23 04:02:46;;;;;;;117.70;41.58;;;;;;;16.28;75.86;102108.97;5049322;28;20534;-50
2021/09/23 04:05:12;;;;;;;133.90;43.33;;;;;;;16.30;76.10;102112.47;5041522;28;20504;-50
2021/09/23 04:07:37;;;;;;;111.50;40.28;;;;;;;16.33;76.05;102115.16;5044253;28;20033;-52
2021/09/23 04:10:03;;;;;;;122.82;42.08;;;;;;;16.42;76.09;102101.19;5045686;28;21292;-52
2021/09/23 04:12:28;;;;;;;124.82;43.00;;;;;;;16.43;76.01;102106.47;5046785;28;20082;-52
2021/09/23 04:14:54;;;;;;;122.50;40.60;;;;;;;16.45;76.24;102112.63;5050787;28;20123;-48
2021/09/23 04:17:20;;;;;;;112.75;38.80;;;;;;;16.47;76.22;102112.63;5046389;28;20044;-49
2021/09/23 04:19:46;;;;;;;115.70;40.00;;;;;;;16.47;76.03;102107.34;5041276;28;20087;-47
2021/09/23 04:22:11;;;;;;;123.50;39.70;;;;;;;16.49;76.05;102103.88;5042797;28;20474;-48
2021/09/23 04:24:37;;;;;;;105.82;37.40;;;;;;;16.45;75.99;102082.78;5049310;28;20063;-51
2021/09/23 04:27:02;;;;;;;121.68;42.80;;;;;;;16.40;75.90;102068.72;5047456;28;20504;-48
2021/09/23 04:29:28;;;;;;;141.32;45.17;;;;;;;16.39;76.39;102059.94;5045436;28;20582;-51
2021/09/23 04:31:54;;;;;;;121.13;41.00;;;;;;;16.40;76.40;102061.72;5045830;28;20199;-51
2021/09/23 04:34:20;;;;;;;128.75;42.13;;;;;;;16.39;76.11;102056.41;5048021;28;20125;-53
2021/09/23 04:36:45;;;;;;;127.25;43.33;;;;;;;16.38;76.07;102045.00;5048964;28;20237;-52
2021/09/23 04:39:12;;;;;;;109.20;38.22;;;;;;;16.32;76.03;102041.44;5050502;28;20159;-50
2021/09/23 04:41:37;;;;;;;113.28;39.78;;;;;;;16.28;75.72;102037.91;5042854;28;20502;-49
2021/09/23 04:44:03;;;;;;;124.22;43.88;;;;;;;16.18;75.93;102029.03;5051657;28;20109;-48
2021/09/23 04:46:28;;;;;;;110.22;40.92;;;;;;;16.16;75.78;102022.88;5049625;28;20109;-51
2021/09/23 04:48:53;;;;;;;125.28;41.17;;;;;;;16.12;75.96;102009.69;5047761;28;20125;-50
2021/09/23 04:51:20;;;;;;;120.70;41.60;;;;;;;16.15;76.01;102001.84;5047526;28;20044;-52
2021/09/23 04:53:45;;;;;;;134.90;44.58;;;;;;;16.13;76.48;101998.31;5045320;28;20117;-49
2021/09/23 04:56:11;;;;;;;119.93;43.17;;;;;;;16.22;76.14;101993.97;5031479;28;20128;-53
2021/09/23 04:58:36;;;;;;;117.22;40.08;;;;;;;16.23;76.04;102006.28;5051069;28;20394;-53
2021/09/23 05:01:02;;;;;;;128.35;42.22;;;;;;;16.21;76.20;102005.41;5052089;28;20152;-52
2021/09/23 05:03:27;;;;;;;135.55;42.45;;;;;;;16.22;76.07;102006.28;5051364;28;20605;-51
2021/09/23 05:05:52;;;;;;;106.60;39.72;;;;;;;16.27;75.98;102003.69;5043605;28;20931;-51
2021/09/23 05:08:18;;;;;;;126.88;42.72;;;;;;;16.24;76.01;102000.16;5047673;28;20051;-52
2021/09/23 05:10:43;;;;;;;116.95;42.45;;;;;;;16.24;75.90;101994.00;5049784;28;20510;-52
2021/09/23 05:13:09;;;;;;;127.20;42.13;;;;;;;16.17;76.16;101984.28;5029432;28;20032;-53
2021/09/23 05:15:36;;;;;;;106.72;39.22;;;;;;;16.19;75.87;101980.81;5044909;28;20592;-51
2021/09/23 05:18:02;;;;;;;133.43;43.63;;;;;;;16.14;76.19;101979.91;5042440;28;20507;-51
2021/09/23 05:20:27;;;;;;;119.00;39.60;;;;;;;16.12;75.80;101976.38;5048033;28;20105;-51
2021/09/23 05:22:52;;;;;;;134.07;43.33;;;;;;;16.11;76.31;101981.63;5050073;28;20594;-54
2021/09/23 05:25:18;;;;;;;115.88;41.25;;;;;;;16.11;75.97;101982.50;5046721;28;20032;-54
2021/09/23 05:27:43;;;;;;;117.55;40.17;;;;;;;16.08;76.16;101985.13;5023461;28;20136;-51
2021/09/23 05:30:12;;;;;;;108.88;36.63;;;;;;;16.09;76.04;101980.75;5032182;28;20327;-51
2021/09/23 05:32:39;;;;;;;130.90;41.25;;;;;;;16.05;76.28;101978.94;5047425;28;20037;-54
2021/09/23 05:35:07;;;;;;;134.05;43.10;;;;;;;16.02;76.43;101971.91;5031068;28;20041;-52
2021/09/23 05:37:33;;;;;;;125.40;40.42;;;;;;;16.08;76.46;101984.25;5047524;28;20054;-49
2021/09/23 05:39:59;;;;;;;136.85;43.00;;;;;;;16.10;76.61;101970.22;5044983;28;20139;-53
2021/09/23 05:42:24;;;;;;;127.57;40.95;;;;;;;16.23;76.29;101972.06;5048347;28;20050;-51
2021/09/23 05:44:49;;;;;;;124.80;40.70;;;;;;;16.37;76.47;101971.28;5049741;28;20478;-51
2021/09/23 05:47:15;;;;;;;124.07;40.70;;;;;;;16.45;76.51;101978.38;5050260;28;20174;-50
2021/09/23 05:49:41;;;;;;;119.07;38.20;;;;;;;16.48;76.37;101983.66;5043014;28;20048;-49
2021/09/23 05:52:06;;;;;;;121.05;39.22;;;;;;;16.51;76.46;101981.06;5051432;28;20033;-49
2021/09/23 05:54:32;;;;;;;110.57;37.13;;;;;;;16.59;76.75;101984.63;5050836;28;20074;-50
2021/09/23 05:56:57;;;;;;;105.38;37.25;;;;;;;16.65;76.82;101996.09;5048996;28;20469;-49
2021/09/23 05:59:26;;;;;;;113.00;35.15;;;;;;;16.77;77.00;101990.91;5034230;28;20479;-52
2021/09/23 06:01:56;;;;;;;84.95;31.73;;;;;;;16.90;76.65;101971.63;5043317;28;20125;-57
2021/09/23 06:04:22;;;;;;;93.90;31.83;;;;;;;16.98;76.93;101973.44;5049050;28;20455;-52
2021/09/23 06:06:48;;;;;;;84.93;31.52;;;;;;;17.08;76.94;101979.63;5046452;28;20044;-51
2021/09/23 06:09:13;;;;;;;72.90;26.25;;;;;;;17.26;77.00;101987.59;5048159;28;20942;-51
2021/09/23 06:11:39;;;;;;;49.10;21.90;;;;;;;17.41;76.81;101987.66;5047332;28;20056;-51
2021/09/23 06:14:08;;;;;;;40.03;18.38;;;;;;;17.57;76.60;101998.25;5041156;28;20571;-48
2021/09/23 06:16:33;;;;;;;27.77;14.25;;;;;;;17.66;75.74;101986.00;5049972;28;20048;-52
2021/09/23 06:18:59;;;;;;;21.25;10.77;;;;;;;17.72;74.32;101988.66;5047440;28;20078;-51
2021/09/23 06:21:24;;;;;;;19.20;9.27;;;;;;;17.78;72.45;101980.75;5049741;28;20040;-54
2021/09/23 06:23:50;;;;;;;18.75;8.18;;;;;;;18.04;72.64;101983.41;5043959;28;20075;-50
2021/09/23 06:26:15;;;;;;;17.13;8.00;;;;;;;18.26;72.31;101971.09;5046583;28;20075;-53
2021/09/23 06:28:40;;;;;;;13.32;7.60;;;;;;;18.23;69.86;101984.31;5050339;28;20070;-52
2021/09/23 06:31:06;;;;;;;13.20;6.72;;;;;;;18.36;70.31;101983.38;5045036;28;20032;-53
2021/09/23 06:33:31;;;;;;;11.85;6.80;;;;;;;18.41;69.63;101975.47;5049231;28;21681;-51
2021/09/23 06:35:57;;;;;;;11.90;7.10;;;;;;;18.34;68.30;101977.25;5026648;28;23467;-53
2021/09/23 06:38:23;;;;;;;11.98;6.88;;;;;;;18.30;68.46;101966.69;5034676;28;20360;-51
2021/09/23 06:40:50;;;;;;;14.20;6.53;;;;;;;18.38;67.80;101972.84;5045632;28;20043;-52
2021/09/23 06:43:16;;;;;;;15.98;7.00;;;;;;;18.37;67.69;101973.72;5049575;28;20167;-50
2021/09/23 06:45:41;;;;;;;14.73;6.97;;;;;;;18.37;67.74;101973.72;5040475;28;20032;-53
2021/09/23 06:48:07;;;;;;;10.75;6.53;;;;;;;18.46;66.84;101966.66;5044524;28;20052;-49
2021/09/23 06:50:32;;;;;;;11.35;6.30;;;;;;;18.59;66.65;101963.16;5036653;28;20037;-53
2021/09/23 06:52:57;;;;;;;11.50;6.00;;;;;;;19.05;66.03;101955.06;5042560;28;20132;-55
2021/09/23 06:55:23;;;;;;;12.02;5.65;;;;;;;19.79;62.25;101951.13;5042956;28;20164;-51
2021/09/23 06:57:48;;;;;;;13.43;5.50;;;;;;;20.59;59.75;101942.50;5034640;28;20048;-48
2021/09/23 07:00:14;;;;;;;10.90;5.13;;;;;;;21.42;56.88;101935.25;5051458;28;20083;-53
2021/09/23 07:02:39;;;;;;;10.48;5.00;;;;;;;21.91;55.56;101923.88;5050120;28;20040;-51
2021/09/23 07:05:05;;;;;;;13.07;4.75;;;;;;;22.35;53.77;101919.59;5049429;28;20135;-51
2021/09/23 07:07:30;;;;;;;11.02;4.93;;;;;;;22.60;52.19;101919.09;5044000;28;20068;-53
2021/09/23 07:09:56;;;;;;;10.73;5.10;;;;;;;22.67;51.69;101912.75;5042181;28;20052;-52
2021/09/23 07:12:27;;;;;;;13.40;4.80;;;;;;;22.92;51.62;101929.09;5045077;28;20090;-52
2021/09/23 07:14:52;;;;;;;9.75;4.63;;;;;;;23.15;50.94;101925.06;5046538;28;20037;-49
2021/09/23 07:17:17;;;;;;;11.52;4.95;;;;;;;23.11;50.27;101921.63;5044103;28;20110;-54
2021/09/23 07:19:43;;;;;;;11.70;4.63;;;;;;;23.16;50.98;101926.81;5042847;28;20211;-49
2021/09/23 07:22:08;;;;;;;12.30;4.32;;;;;;;23.18;50.69;101923.19;5025604;28;20466;-49
2021/09/23 07:24:35;;;;;;;11.05;4.20;;;;;;;22.70;51.87;101919.78;5040191;28;20384;-48
2021/09/23 07:27:00;;;;;;;9.50;4.55;;;;;;;21.89;53.83;101906.22;5040683;28;20040;-50
2021/09/23 07:29:27;;;;;;;10.48;4.88;;;;;;;21.65;54.31;101897.75;5022817;28;20074;-52
2021/09/23 07:31:53;;;;;;;14.45;5.00;;;;;;;21.44;55.18;101900.75;5020731;28;20138;-52
2021/09/23 07:34:19;;;;;;;10.15;5.03;;;;;;;21.27;55.94;101894.81;5027754;28;20047;-53
2021/09/23 07:36:45;;;;;;;11.23;5.05;;;;;;;21.10;56.80;101875.59;5033024;28;20365;-49
2021/09/23 07:39:11;;;;;;;9.80;4.75;;;;;;;21.37;56.18;101873.44;5037785;28;20051;-53
2021/09/23 07:41:37;;;;;;;11.93;4.90;;;;;;;21.42;56.27;101865.41;5039793;28;20033;-52
2021/09/23 07:44:08;;;;;;;16.63;5.10;;;;;;;21.38;55.86;101874.31;5039464;28;20362;-48
2021/09/23 07:46:34;;;;;;;12.18;4.75;;;;;;;21.63;55.22;101878.34;5042200;28;20439;-51
2021/09/23 07:48:59;;;;;;;11.40;4.80;;;;;;;21.77;55.11;101892.22;5040169;28;20044;-53
2021/09/23 07:51:25;;;;;;;12.20;4.55;;;;;;;21.62;56.39;101894.28;5022676;28;20047;-49
2021/09/23 07:53:50;;;;;;;10.98;4.90;;;;;;;21.62;54.77;101883.66;5028859;28;20458;-47
2021/09/23 07:56:16;;;;;;;12.02;4.28;;;;;;;21.43;55.27;101897.22;5043982;28;20129;-53
2021/09/23 07:58:42;;;;;;;8.65;4.60;;;;;;;21.39;55.16;101892.00;5022100;28;20495;-52
2021/09/23 08:01:08;;;;;;;8.68;4.50;;;;;;;21.54;55.14;101902.34;5030134;28;20404;-51
2021/09/23 08:03:34;;;;;;;6.80;4.10;;;;;;;21.62;54.41;101902.25;5024290;28;20036;-54
2021/09/23 08:05:59;;;;;;;7.90;4.20;;;;;;;21.59;54.13;101921.72;5034306;28;20190;-53
2021/09/23 08:08:25;;;;;;;7.97;4.05;;;;;;;21.80;53.60;101923.16;5041190;28;20045;-50
2021/09/23 08:10:50;;;;;;;6.30;3.80;;;;;;;22.06;53.50;101920.13;5044919;28;20079;-50
2021/09/23 08:13:16;;;;;;;9.52;4.20;;;;;;;22.15;53.22;101931.44;5043922;28;20148;-50
2021/09/23 08:15:44;;;;;;;7.03;3.80;;;;;;;22.19;52.75;101933.16;5032393;28;20434;-54
2021/09/23 08:18:10;;;;;;;10.70;4.00;;;;;;;22.14;53.16;101940.31;5040923;28;20336;-48
2021/09/23 08:20:35;;;;;;;10.40;3.60;;;;;;;21.85;53.20;101938.13;5023417;28;20666;-48
2021/09/23 08:23:01;;;;;;;10.57;3.75;;;;;;;21.54;53.30;101942.16;5040469;28;20082;-52
2021/09/23 08:25:26;;;;;;;7.38;3.70;;;;;;;21.38;53.49;101946.81;5036441;28;20578;-49
2021/09/23 08:27:52;;;;;;;7.88;3.50;;;;;;;21.11;54.43;101948.91;5035791;28;20068;-48
2021/09/23 08:30:17;;;;;;;6.30;3.30;;;;;;;20.90;56.00;101950.97;5045222;28;20068;-54
2021/09/23 08:32:43;;;;;;;11.35;3.50;;;;;;;20.78;55.78;101944.94;5041452;28;20820;-50
2021/09/23 08:35:09;;;;;;;12.38;3.55;;;;;;;20.79;56.17;101950.22;5047117;28;20028;-50
2021/09/23 08:37:40;;;;;;;7.13;3.30;;;;;;;20.88;55.64;101958.03;5042736;28;20524;-52
2021/09/23 08:40:11;;;;;;;7.78;3.45;;;;;;;20.81;55.75;101961.66;5046563;28;20075;-52
2021/09/23 08:42:39;;;;;;;9.32;3.20;;;;;;;20.90;54.94;101968.63;5042342;28;20721;-57
2021/09/23 08:45:05;;;;;;;9.73;3.47;;;;;;;20.92;56.03;101954.44;5044091;28;20032;-51
2021/09/23 08:47:33;;;;;;;8.88;3.47;;;;;;;20.94;56.39;101957.09;5039948;28;20047;-53
2021/09/23 08:50:01;;;;;;;10.55;3.55;;;;;;;21.06;57.00;101963.13;5038384;28;20052;-50
2021/09/23 08:52:28;;;;;;;7.32;3.35;;;;;;;21.22;55.94;101962.97;5035404;28;20452;-48
2021/09/23 08:54:53;;;;;;;6.28;3.28;;;;;;;21.13;55.04;101955.97;5039498;28;20097;-48
2021/09/23 08:57:18;;;;;;;11.20;3.97;;;;;;;21.24;55.11;101948.78;5044798;28;20045;-48
2021/09/23 08:59:44;;;;;;;11.18;3.42;;;;;;;21.26;55.60;101948.75;5032522;28;20133;-48
2021/09/23 09:02:20;;;;;;;6.43;3.30;;;;;;;21.47;54.26;101944.94;5039324;28;20471;-48
2021/09/23 09:04:54;;;;;;;12.05;3.45;;;;;;;21.42;54.32;101945.88;5041553;28;20105;-49
2021/09/23 09:07:30;;;;;;;8.45;3.40;;;;;;;21.55;53.57;101932.41;5043645;28;20040;-48
2021/09/23 09:10:08;;;;;;;7.55;3.40;;;;;;;21.66;53.51;101923.38;5033573;28;20289;-51
2021/09/23 09:12:34;;;;;;;8.95;3.00;;;;;;;21.35;53.91;101928.28;5029416;28;20587;-48
2021/09/23 09:15:00;;;;;;;7.18;2.83;;;;;;;21.59;53.94;101928.84;5041209;28;20056;-50
2021/09/23 09:17:25;;;;;;;8.55;3.00;;;;;;;21.83;52.49;101933.75;5035134;28;20082;-48
2021/09/23 09:19:57;;;;;;;8.05;3.00;;;;;;;21.76;53.08;101927.66;5038001;28;20492;-48
2021/09/23 09:22:24;;;;;;;7.95;2.80;;;;;;;21.62;52.18;101936.72;5034550;28;20047;-53
2021/09/23 09:24:55;;;;;;;8.02;2.85;;;;;;;21.51;52.89;101936.91;5048046;28;20044;-51
2021/09/23 09:27:42;;;;;;;8.63;3.00;;;;;;;21.45;53.28;101939.66;5048716;28;20044;-50
2021/09/23 09:30:11;;;;;;;11.38;3.10;;;;;;;21.34;53.96;101934.50;5050575;28;20147;-50
2021/09/23 09:32:38;;;;;;;6.50;2.70;;;;;;;21.33;54.09;101942.47;5031772;28;20045;-52
2021/09/23 09:35:05;;;;;;;7.55;3.10;;;;;;;21.32;54.16;101938.06;5037610;28;20432;-51
2021/09/23 09:37:32;;;;;;;10.20;3.00;;;;;;;21.21;55.25;101922.31;5037551;28;20809;-50
2021/09/23 09:39:58;;;;;;;7.93;3.35;;;;;;;21.26;54.32;101931.06;5019119;28;20124;-50
2021/09/23 09:42:27;;;;;;;7.97;3.00;;;;;;;21.41;54.09;101940.56;5041981;28;20079;-51
2021/09/23 09:44:56;;;;;;;6.32;3.05;;;;;;;21.43;54.60;101941.44;5023388;28;20433;-49
2021/09/23 09:47:26;;;;;;;6.90;3.17;;;;;;;21.15;54.93;101948.00;5014375;28;20040;-49
2021/09/23 09:49:52;;;;;;;9.27;3.20;;;;;;;21.04;55.67;101938.38;5031706;28;20191;-49
2021/09/23 09:52:28;;;;;;;12.00;3.40;;;;;;;21.10;54.84;101953.38;5044767;28;20563;-47
2021/09/23 09:55:10;;;;;;;9.43;3.45;;;;;;;21.14;54.70;101946.25;5042449;28;20129;-49
2021/09/23 09:57:46;;;;;;;8.30;3.58;;;;;;;21.28;54.58;101946.97;5035204;28;20106;-50
2021/09/23 10:00:12;;;;;;;10.50;3.70;;;;;;;21.44;53.42;101946.72;5041172;28;20060;-49
2021/09/23 10:02:37;;;;;;;13.23;3.47;;;;;;;21.31;54.47;101942.50;5013909;28;20037;-49
2021/09/23 10:05:03;;;;;;;10.93;3.42;;;;;;;21.38;54.38;101943.28;5041501;28;20036;-49
2021/09/23 10:07:29;;;;;;;10.15;3.85;;;;;;;21.15;54.86;101943.59;5034539;28;20571;-49
2021/09/23 10:09:56;;;;;;;10.98;4.03;;;;;;;21.25;53.97;101939.03;5016127;28;20036;-50
2021/09/23 10:12:22;;;;;;;12.20;3.80;;;;;;;21.34;54.77;101944.25;5044924;28;20449;-47
2021/09/23 10:14:49;;;;;;;7.70;3.30;;;;;;;21.61;54.70;101945.59;5040084;28;20915;-48
2021/09/23 10:17:15;;;;;;;9.43;3.20;;;;;;;21.79;53.18;101945.31;5017286;28;20039;-48
2021/09/23 10:19:43;;;;;;;7.35;3.00;;;;;;;21.82;52.83;101940.84;5025654;28;20044;-48
2021/09/23 10:22:12;;;;;;;7.40;2.90;;;;;;;21.74;52.89;101931.22;5040780;28;20094;-47
2021/09/23 10:24:40;;;;;;;8.07;2.88;;;;;;;21.86;52.19;101929.25;5042488;28;20064;-48
2021/09/23 10:27:57;;;;;;;12.88;2.90;;;;;;;21.90;52.34;101929.19;5022064;28;20064;-49
2021/09/23 10:29:53;;;;;;;5.72;2.50;;;;;;;21.67;53.13;101921.63;5033426;28;20158;-47
2021/09/23 10:32:19;;;;;;;6.28;2.88;;;;;;;21.63;54.13;101917.25;5044545;28;20447;-52
2021/09/23 10:34:48;;;;;;;8.00;2.40;;;;;;;21.67;53.96;101924.25;5042395;28;20045;-52
2021/09/23 10:37:13;;;;;;;8.10;2.33;;;;;;;21.66;53.14;101920.72;5035503;28;20036;-50
2021/09/23 10:39:39;;;;;;;8.73;2.13;;;;;;;21.66;52.60;101922.50;5016073;28;20561;-51
2021/09/23 10:42:06;;;;;;;11.75;2.22;;;;;;;21.57;52.94;101915.59;5020441;28;20563;-51
2021/09/23 10:44:33;;;;;;;9.50;2.40;;;;;;;21.62;54.00;101908.41;5041673;28;20542;-51
2021/09/23 10:46:59;;;;;;;8.25;2.20;;;;;;;21.94;53.08;101904.38;5019788;28;20043;-52
2021/09/23 10:49:26;;;;;;;7.68;2.20;;;;;;;22.23;52.98;101904.75;5005102;28;20298;-49
2021/09/23 10:51:52;;;;;;;5.60;2.00;;;;;;;22.64;51.41;101903.94;5034441;28;20131;-50
2021/09/23 10:54:22;;;;;;;7.72;2.25;;;;;;;22.88;50.80;101894.63;5044173;28;20137;-50
2021/09/23 10:56:49;;;;;;;6.07;2.03;;;;;;;23.22;49.53;101887.66;5035753;28;20028;-51
2021/09/23 10:59:14;;;;;;;5.90;2.00;;;;;;;23.19;48.63;101879.72;5044207;28;20040;-48
2021/09/23 11:01:41;;;;;;;7.53;2.17;;;;;;;23.30;48.26;101875.03;5040946;28;20032;-50
2021/09/23 11:04:07;;;;;;;7.32;2.22;;;;;;;23.65;49.18;101868.03;5019525;28;20048;-49
2021/09/23 11:06:41;;;;;;;6.80;2.17;;;;;;;23.66;48.31;101875.13;5043317;28;20415;-51
2021/09/23 11:09:20;;;;;;;5.47;2.13;;;;;;;23.67;48.31;101877.72;5036139;28;20712;-50